createdAt,value
2022-12-26T00:01:00.259Z,95540.16
2022-12-26T00:03:28.244Z,95535.88
2022-12-26T00:05:55.946Z,95539.66
2022-12-26T00:08:24.973Z,95536.16
2022-12-26T00:10:52.570Z,95530.00
2022-12-26T00:13:39.876Z,95541.91
2022-12-26T00:16:08.951Z,95540.16
2022-12-26T00:18:36.871Z,95535.78
2022-12-26T00:21:04.521Z,95545.78
2022-12-26T00:23:33.876Z,95538.59
2022-12-26T00:26:04.306Z,95538.72
2022-12-26T00:28:32.424Z,95539.19
2022-12-26T00:31:00.311Z,95546.97
2022-12-26T00:33:28.149Z,95536.47
2022-12-26T00:36:01.343Z,95542.97
2022-12-26T00:38:29.067Z,95548.16
2022-12-26T00:40:58.203Z,95548.16
2022-12-26T00:43:25.809Z,95542.28
2022-12-26T00:45:53.979Z,95551.13
2022-12-26T00:48:22.852Z,95549.34
2022-12-26T00:50:50.522Z,95540.38
2022-12-26T00:53:18.354Z,95546.41
2022-12-26T00:55:45.963Z,95544.38
2022-12-26T00:58:14.938Z,95545.56
2022-12-26T01:00:42.859Z,95551.00
2022-12-26T01:03:12.404Z,95558.69
2022-12-26T01:05:42.889Z,95551.81
2022-12-26T01:08:22.302Z,95553.25
2022-12-26T01:10:51.599Z,95562.88
2022-12-26T01:13:20.615Z,95558.16
2022-12-26T01:15:50.344Z,95557.09
2022-12-26T01:18:18.009Z,95564.88
2022-12-26T01:20:45.625Z,95556.97
2022-12-26T01:23:13.269Z,95562.53
2022-12-26T01:26:19.035Z,95561.47
2022-12-26T01:28:30.165Z,95561.25
2022-12-26T01:31:02.404Z,95566.91
2022-12-26T01:33:30.132Z,95561.94
2022-12-26T01:35:58.132Z,95570.91
2022-12-26T01:38:26.189Z,95569.72
2022-12-26T01:41:14.485Z,95568.34
2022-12-26T01:43:51.588Z,95570.59
2022-12-26T01:46:22.494Z,95574.81
2022-12-26T01:48:51.540Z,95575.19
2022-12-26T01:51:20.332Z,95585.56
2022-12-26T01:53:50.932Z,95584.13
2022-12-26T01:56:22.706Z,95585.09
2022-12-26T01:58:56.425Z,95585.88
2022-12-26T02:01:28.643Z,95593.66
2022-12-26T02:04:14.230Z,95590.84
2022-12-26T02:06:42.270Z,95596.03
2022-12-26T02:09:10.821Z,95592.53
2022-12-26T02:11:43.324Z,95599.22
2022-12-26T02:14:12.582Z,95586.16
2022-12-26T02:16:41.137Z,95590.72
2022-12-26T02:19:20.894Z,95584.63
2022-12-26T02:22:12.290Z,95585.19
2022-12-26T02:25:08.581Z,95582.38
2022-12-26T02:27:53.405Z,95585.19
2022-12-26T02:30:41.049Z,95591.19
2022-12-26T02:33:45.163Z,95589.06
2022-12-26T02:36:32.599Z,95577.72
2022-12-26T02:39:44.649Z,95570.06
2022-12-26T02:42:15.874Z,95574.88
2022-12-26T02:45:06.082Z,95575.47
2022-12-26T02:47:42.994Z,95584.03
2022-12-26T02:50:35.937Z,95578.41
2022-12-26T02:53:30.435Z,95577.91
2022-12-26T02:56:21.603Z,95574.81
2022-12-26T02:59:14.091Z,95568.19
2022-12-26T03:02:04.718Z,95563.94
2022-12-26T03:04:54.687Z,95559.09
2022-12-26T03:07:45.578Z,95571.34
2022-12-26T03:10:37.445Z,95567.31
2022-12-26T03:13:11.883Z,95560.25
2022-12-26T03:16:02.844Z,95566.16
2022-12-26T03:18:58.546Z,95562.97
2022-12-26T03:21:26.424Z,95566.50
2022-12-26T03:23:55.711Z,95571.66
2022-12-26T03:26:43.701Z,95579.03
2022-12-26T03:29:32.615Z,95576.44
2022-12-26T03:32:02.990Z,95577.53
2022-12-26T03:34:30.735Z,95574.47
2022-12-26T03:37:26.425Z,95573.91
2022-12-26T03:40:43.419Z,95571.78
2022-12-26T03:43:39.467Z,95578.31
2022-12-26T03:46:35.447Z,95573.25
2022-12-26T03:49:27.908Z,95568.06
2022-12-26T03:52:19.024Z,95568.78
2022-12-26T03:55:14.050Z,95567.59
2022-12-26T03:58:07.182Z,95566.06
2022-12-26T04:00:54.598Z,95560.66
2022-12-26T04:03:42.827Z,95559.91
2022-12-26T04:06:36.940Z,95565.94
2022-12-26T04:09:27.891Z,95568.53
2022-12-26T04:12:18.620Z,95572.78
2022-12-26T04:15:07.316Z,95579.63
2022-12-26T04:18:02.277Z,95586.00
2022-12-26T04:20:39.185Z,95585.63
2022-12-26T04:23:31.062Z,95589.59
2022-12-26T04:26:20.932Z,95595.84
2022-12-26T04:29:07.598Z,95596.78
2022-12-26T04:32:01.915Z,95597.00
2022-12-26T04:34:51.661Z,95597.38
2022-12-26T04:37:42.419Z,95600.47
2022-12-26T04:40:34.732Z,95590.81
2022-12-26T04:43:47.547Z,95597.03
2022-12-26T04:46:11.405Z,95595.41
2022-12-26T04:49:04.654Z,95602.22
2022-12-26T04:51:32.488Z,95594.00
2022-12-26T04:54:00.180Z,95597.72
2022-12-26T04:56:28.212Z,95598.56
2022-12-26T04:58:55.972Z,95588.75
2022-12-26T05:01:42.449Z,95589.56
2022-12-26T05:04:31.657Z,95590.75
2022-12-26T05:07:18.423Z,95598.63
2022-12-26T05:09:47.049Z,95596.97
2022-12-26T05:12:14.647Z,95594.38
2022-12-26T05:14:42.282Z,95587.19
2022-12-26T05:17:29.882Z,95603.78
2022-12-26T05:20:15.264Z,95607.81
2022-12-26T05:23:02.585Z,95605.22
2022-12-26T05:25:49.368Z,95608.97
2022-12-26T05:28:35.648Z,95612.00
2022-12-26T05:31:04.198Z,95618.97
2022-12-26T05:33:51.284Z,95614.31
2022-12-26T05:36:21.401Z,95620.63
2022-12-26T05:38:49.308Z,95614.59
2022-12-26T05:41:17.110Z,95617.78
2022-12-26T05:43:45.114Z,95614.88
2022-12-26T05:46:12.731Z,95618.41
2022-12-26T05:48:42.185Z,95626.31
2022-12-26T05:51:09.830Z,95623.94
2022-12-26T05:53:37.441Z,95625.47
2022-12-26T05:56:05.779Z,95627.94
2022-12-26T05:58:33.857Z,95636.16
2022-12-26T06:01:10.348Z,95632.16
2022-12-26T06:03:39.284Z,95628.00
2022-12-26T06:06:08.691Z,95628.50
2022-12-26T06:08:36.968Z,95627.16
2022-12-26T06:11:06.065Z,95628.59
2022-12-26T06:13:33.820Z,95622.25
2022-12-26T06:16:05.527Z,95632.41
2022-12-26T06:18:33.360Z,95618.31
2022-12-26T06:21:01.163Z,95614.66
2022-12-26T06:23:30.188Z,95624.91
2022-12-26T06:25:58.517Z,95612.94
2022-12-26T06:28:26.496Z,95612.16
2022-12-26T06:30:54.356Z,95608.06
2022-12-26T06:33:22.045Z,95611.28
2022-12-26T06:35:49.657Z,95613.16
2022-12-26T06:38:17.287Z,95609.47
2022-12-26T06:40:46.255Z,95610.59
2022-12-26T06:43:13.860Z,95608.25
2022-12-26T06:45:41.574Z,95595.75
2022-12-26T06:48:09.215Z,95579.63
2022-12-26T06:50:37.355Z,95583.53
2022-12-26T06:53:04.987Z,95596.25
2022-12-26T06:55:32.608Z,95596.41
2022-12-26T06:58:01.641Z,95603.38
2022-12-26T07:00:34.635Z,95605.22
2022-12-26T07:03:02.329Z,95610.09
2022-12-26T07:05:29.989Z,95619.00
2022-12-26T07:07:57.655Z,95613.84
2022-12-26T07:10:25.261Z,95619.03
2022-12-26T07:12:52.864Z,95624.31
2022-12-26T07:15:21.879Z,95621.19
2022-12-26T07:17:49.550Z,95618.16
2022-12-26T07:20:17.352Z,95607.28
2022-12-26T07:30:52.483Z,95611.81
2022-12-26T07:33:20.189Z,95614.78
2022-12-26T07:35:48.096Z,95614.16
2022-12-26T07:38:15.925Z,95617.78
2022-12-26T07:40:43.552Z,95616.53
2022-12-26T07:43:11.175Z,95617.97
2022-12-26T07:45:45.067Z,95626.97
2022-12-26T07:48:14.461Z,95624.91
2022-12-26T07:50:42.218Z,95626.78
2022-12-26T07:53:09.818Z,95620.06
2022-12-26T07:55:37.446Z,95621.84
2022-12-26T07:58:05.073Z,95617.97
2022-12-26T08:00:32.725Z,95619.53
2022-12-26T08:03:06.804Z,95624.50
2022-12-26T08:05:37.265Z,95620.53
2022-12-26T08:08:05.288Z,95623.13
2022-12-26T08:10:32.893Z,95619.16
2022-12-26T08:13:00.555Z,95623.31
2022-12-26T08:15:28.216Z,95630.44
2022-12-26T08:17:55.822Z,95630.63
2022-12-26T08:20:24.067Z,95626.06
2022-12-26T08:22:53.380Z,95622.19
2022-12-26T08:25:22.072Z,95626.22
2022-12-26T08:27:50.441Z,95611.97
2022-12-26T08:30:18.101Z,95617.03
2022-12-26T08:32:46.445Z,95611.88
2022-12-26T08:35:14.431Z,95614.84
2022-12-26T08:37:42.054Z,95622.28
2022-12-26T08:40:12.832Z,95621.72
2022-12-26T08:43:03.044Z,95620.44
2022-12-26T08:45:28.489Z,95624.44
2022-12-26T08:47:56.252Z,95618.19
2022-12-26T08:50:23.995Z,95617.03
2022-12-26T08:52:51.786Z,95613.16
2022-12-26T08:55:20.837Z,95626.38
2022-12-26T08:57:48.434Z,95616.34
2022-12-26T09:00:17.279Z,95617.56
2022-12-26T09:02:45.099Z,95611.09
2022-12-26T09:05:12.878Z,95611.31
2022-12-26T09:07:40.476Z,95612.38
2022-12-26T09:10:08.624Z,95603.06
2022-12-26T09:12:37.606Z,95603.06
2022-12-26T09:15:06.008Z,95603.03
2022-12-26T09:17:33.647Z,95606.81
2022-12-26T09:20:01.322Z,95598.41
2022-12-26T09:22:46.690Z,95604.03
2022-12-26T09:25:14.290Z,95596.19
2022-12-26T09:27:43.322Z,95600.91
2022-12-26T09:30:11.417Z,95609.88
2022-12-26T09:32:39.190Z,95604.06
2022-12-26T09:35:07.667Z,95602.06
2022-12-26T09:37:35.439Z,95598.81
2022-12-26T09:40:04.168Z,95593.25
2022-12-26T09:42:37.639Z,95593.25
2022-12-26T09:45:15.189Z,95597.59
2022-12-26T09:47:51.193Z,95599.13
2022-12-26T09:50:26.794Z,95604.88
2022-12-26T09:52:57.350Z,95606.69
2022-12-26T09:55:36.628Z,95608.91
2022-12-26T09:58:14.348Z,95592.34
2022-12-26T10:01:06.838Z,95598.25
2022-12-26T10:03:39.360Z,95600.03
2022-12-26T10:06:14.559Z,95603.34
2022-12-26T10:08:58.180Z,95602.25
2022-12-26T10:11:35.058Z,95593.81
2022-12-26T10:14:08.832Z,95589.44
2022-12-26T10:16:50.166Z,95582.91
2022-12-26T10:19:32.699Z,95575.94
2022-12-26T10:22:15.062Z,95578.84
2022-12-26T10:24:44.239Z,95573.25
2022-12-26T10:27:15.920Z,95570.41
2022-12-26T10:29:49.371Z,95568.13
2022-12-26T10:32:28.275Z,95565.00
2022-12-26T10:34:56.254Z,95559.56
2022-12-26T10:37:27.117Z,95561.03
2022-12-26T10:40:02.192Z,95565.06
2022-12-26T10:42:34.758Z,95564.44
2022-12-26T10:45:03.351Z,95562.97
2022-12-26T10:47:38.213Z,95567.09
2022-12-26T10:50:07.252Z,95570.25
2022-12-26T10:52:40.100Z,95569.03
2022-12-26T10:55:29.578Z,95572.09
2022-12-26T10:58:04.364Z,95575.34
2022-12-26T11:00:32.029Z,95568.25
2022-12-26T11:03:08.574Z,95568.16
2022-12-26T11:06:06.539Z,95570.78
2022-12-26T11:08:30.738Z,95567.25
2022-12-26T11:11:08.519Z,95571.13
2022-12-26T11:13:40.699Z,95556.03
2022-12-26T11:16:09.555Z,95555.72
2022-12-26T11:18:47.310Z,95554.28
2022-12-26T11:21:23.223Z,95566.22
2022-12-26T11:23:52.585Z,95565.00
2022-12-26T11:26:29.903Z,95560.34
2022-12-26T11:29:09.188Z,95557.19
2022-12-26T11:31:37.249Z,95564.06
2022-12-26T11:34:12.368Z,95570.81
2022-12-26T11:36:46.159Z,95571.78
2022-12-26T11:39:23.487Z,95573.00
2022-12-26T11:41:52.984Z,95567.66
2022-12-26T11:44:24.979Z,95571.66
2022-12-26T11:46:56.337Z,95562.59
2022-12-26T11:49:30.917Z,95567.66
2022-12-26T11:52:00.213Z,95567.81
2022-12-26T11:54:32.488Z,95573.88
2022-12-26T11:57:13.181Z,95587.84
2022-12-26T11:59:41.001Z,95588.41
2022-12-26T12:02:23.763Z,95588.13
2022-12-26T12:04:54.899Z,95595.94
2022-12-26T12:07:48.529Z,95602.81
2022-12-26T12:10:53.001Z,95585.91
2022-12-26T12:13:30.849Z,95595.63
2022-12-26T12:16:05.574Z,95622.94
2022-12-26T12:18:48.446Z,95624.81
2022-12-26T12:21:26.181Z,95627.88
2022-12-26T12:24:11.403Z,95643.22
2022-12-26T12:26:51.001Z,95655.56
2022-12-26T12:29:36.498Z,95655.91
2022-12-26T12:32:17.614Z,95674.91
2022-12-26T12:35:16.560Z,95642.94
2022-12-26T12:38:00.853Z,95659.13
2022-12-26T12:40:37.361Z,95668.63
2022-12-26T12:43:12.816Z,95667.81
2022-12-26T12:45:50.444Z,95683.31
2022-12-26T12:48:32.746Z,95668.78
2022-12-26T12:51:08.784Z,95673.91
2022-12-26T12:53:53.420Z,95681.44
2022-12-26T12:56:29.588Z,95678.97
2022-12-26T12:59:05.854Z,95690.72
2022-12-26T13:01:37.274Z,95698.59
2022-12-26T13:04:09.952Z,95702.28
2022-12-26T13:06:43.297Z,95708.69
2022-12-26T13:09:18.182Z,95716.13
2022-12-26T13:11:50.040Z,95729.91
2022-12-26T13:14:23.232Z,95712.78
2022-12-26T13:16:58.170Z,95714.69
2022-12-26T13:19:28.671Z,95710.94
2022-12-26T13:22:01.684Z,95705.59
2022-12-26T13:24:35.526Z,95713.00
2022-12-26T13:27:14.899Z,95713.94
2022-12-26T13:29:44.632Z,95711.69
2022-12-26T13:32:20.744Z,95722.34
2022-12-26T13:34:49.169Z,95729.06
2022-12-26T13:37:56.460Z,95733.75
2022-12-26T13:40:29.799Z,95739.50
2022-12-26T13:43:20.819Z,95727.59
2022-12-26T13:45:51.918Z,95728.38
2022-12-26T13:49:08.113Z,95732.53
2022-12-26T13:51:47.866Z,95729.22
2022-12-26T13:54:16.845Z,95737.13
2022-12-26T13:57:22.743Z,95734.78
2022-12-26T14:00:02.534Z,95741.31
2022-12-26T14:03:23.237Z,95729.09
2022-12-26T14:06:23.761Z,95733.84
2022-12-26T14:09:16.508Z,95744.44
2022-12-26T14:12:01.576Z,95749.63
2022-12-26T14:14:42.747Z,95748.69
2022-12-26T14:17:21.749Z,95751.88
2022-12-26T14:20:02.276Z,95765.56
2022-12-26T14:22:40.943Z,95764.94
2022-12-26T14:25:17.570Z,95763.16
2022-12-26T14:27:53.444Z,95774.66
2022-12-26T14:30:27.470Z,95774.63
2022-12-26T14:33:25.623Z,95775.66
2022-12-26T14:36:05.979Z,95784.03
2022-12-26T14:38:43.426Z,95782.50
2022-12-26T14:41:34.684Z,95779.53
2022-12-26T14:44:11.243Z,95784.53
2022-12-26T14:47:00.418Z,95780.34
2022-12-26T14:49:39.688Z,95785.44
2022-12-26T14:52:37.583Z,95788.66
2022-12-26T14:55:48.883Z,95795.25
2022-12-26T14:58:27.851Z,95799.13
2022-12-26T15:00:57.434Z,95798.72
2022-12-26T15:03:45.712Z,95793.13
2022-12-26T15:06:47.211Z,95797.47
2022-12-26T15:09:30.485Z,95798.19
2022-12-26T15:12:21.184Z,95788.69
2022-12-26T15:15:26.764Z,95789.03
2022-12-26T15:18:14.999Z,95782.03
2022-12-26T15:21:09.084Z,95783.53
2022-12-26T15:24:02.969Z,95775.88
2022-12-26T15:27:20.514Z,95775.41
2022-12-26T15:30:04.362Z,95768.00
2022-12-26T15:32:38.057Z,95764.03
2022-12-26T15:35:18.336Z,95773.38
2022-12-26T15:38:21.785Z,95773.25
2022-12-26T15:40:59.732Z,95773.69
2022-12-26T15:43:43.094Z,95788.72
2022-12-26T15:46:19.081Z,95779.19
2022-12-26T15:49:04.938Z,95776.38
2022-12-26T15:51:50.931Z,95778.47
2022-12-26T15:54:35.834Z,95784.25
2022-12-26T15:57:16.086Z,95779.03
2022-12-26T15:59:59.846Z,95776.78
2022-12-26T16:02:39.852Z,95771.25
2022-12-26T16:05:27.698Z,95777.91
2022-12-26T16:08:04.104Z,95779.25
2022-12-26T16:10:33.963Z,95767.22
2022-12-26T16:13:17.797Z,95788.53
2022-12-26T16:15:47.527Z,95772.66
2022-12-26T16:18:17.028Z,95771.63
2022-12-26T16:21:04.533Z,95763.25
2022-12-26T16:23:36.168Z,95757.69
2022-12-26T16:26:04.121Z,95759.03
2022-12-26T16:28:38.419Z,95753.59
2022-12-26T16:31:06.910Z,95752.81
2022-12-26T16:33:42.226Z,95736.53
2022-12-26T16:36:12.308Z,95733.50
2022-12-26T16:38:45.206Z,95716.16
2022-12-26T16:41:21.982Z,95722.78
2022-12-26T16:43:54.107Z,95742.44
2022-12-26T16:46:23.171Z,95730.19
2022-12-26T16:48:55.480Z,95737.56
2022-12-26T16:51:39.597Z,95746.38
2022-12-26T16:54:18.658Z,95728.94
2022-12-26T16:56:49.644Z,95709.06
2022-12-26T16:59:21.042Z,95706.16
2022-12-26T17:01:50.739Z,95722.03
2022-12-26T17:04:20.961Z,95709.38
2022-12-26T17:06:52.069Z,95707.94
2022-12-26T17:09:22.477Z,95706.53
2022-12-26T17:11:54.076Z,95718.13
2022-12-26T17:14:27.076Z,95713.50
2022-12-26T17:16:59.203Z,95728.25
2022-12-26T17:19:29.819Z,95717.66
2022-12-26T17:22:21.319Z,95738.50
2022-12-26T17:24:50.700Z,95737.91
2022-12-26T17:27:23.138Z,95747.13
2022-12-26T17:29:57.710Z,95742.66
2022-12-26T17:32:34.237Z,95750.34
2022-12-26T17:35:08.804Z,95732.56
2022-12-26T17:37:36.777Z,95723.94
2022-12-26T17:40:09.473Z,95722.06
2022-12-26T17:42:49.239Z,95745.91
2022-12-26T17:45:20.822Z,95745.22
2022-12-26T17:47:48.470Z,95746.97
2022-12-26T17:50:16.195Z,95750.00
2022-12-26T17:52:43.973Z,95754.19
2022-12-26T17:55:18.139Z,95756.06
2022-12-26T17:57:45.782Z,95748.09
2022-12-26T18:00:20.024Z,95747.06
2022-12-26T18:02:47.904Z,95736.59
2022-12-26T18:05:16.364Z,95737.97
2022-12-26T18:07:44.566Z,95748.94
2022-12-26T18:10:18.980Z,95760.84
2022-12-26T18:12:46.820Z,95757.09
2022-12-26T18:15:14.514Z,95755.22
2022-12-26T18:17:43.888Z,95750.09
2022-12-26T18:20:17.153Z,95749.97
2022-12-26T18:22:45.174Z,95772.00
2022-12-26T18:25:14.118Z,95764.34
2022-12-26T18:27:41.859Z,95763.50
2022-12-26T18:30:16.215Z,95762.22
2022-12-26T18:32:46.076Z,95755.16
2022-12-26T18:35:14.465Z,95736.84
2022-12-26T18:37:44.103Z,95741.91
2022-12-26T18:40:27.334Z,95754.44
2022-12-26T18:42:55.015Z,95756.00
2022-12-26T18:45:22.665Z,95758.69
2022-12-26T18:47:51.689Z,95756.50
2022-12-26T18:50:19.756Z,95752.16
2022-12-26T18:52:51.778Z,95757.34
2022-12-26T18:55:21.601Z,95763.06
2022-12-26T18:57:49.225Z,95764.50
2022-12-26T19:00:18.440Z,95762.66
2022-12-26T19:02:47.375Z,95773.66
2022-12-26T19:05:19.035Z,95774.09
2022-12-26T19:07:48.304Z,95777.31
2022-12-26T19:10:16.952Z,95792.66
2022-12-26T19:12:44.787Z,95779.38
2022-12-26T19:15:13.428Z,95767.00
2022-12-26T19:17:43.611Z,95771.28
2022-12-26T19:20:17.964Z,95774.59
2022-12-26T19:22:47.897Z,95780.50
2022-12-26T19:25:16.675Z,95749.81
2022-12-26T19:27:44.588Z,95749.19
2022-12-26T19:30:13.489Z,95768.16
2022-12-26T19:32:42.587Z,95770.56
2022-12-26T19:35:11.582Z,95755.59
2022-12-26T19:37:39.886Z,95766.28
2022-12-26T19:40:11.003Z,95769.91
2022-12-26T19:42:38.829Z,95772.50
2022-12-26T19:45:08.417Z,95781.81
2022-12-26T19:47:36.642Z,95776.22
2022-12-26T19:50:05.732Z,95766.56
2022-12-26T19:52:34.359Z,95781.72
2022-12-26T19:55:01.934Z,95778.09
2022-12-26T19:57:31.833Z,95776.53
2022-12-26T19:59:59.400Z,95777.50
2022-12-26T20:02:27.227Z,95776.78
2022-12-26T20:04:55.010Z,95769.50
2022-12-26T20:07:22.637Z,95760.19
2022-12-26T20:09:50.269Z,95750.34
2022-12-26T20:12:17.893Z,95762.06
2022-12-26T20:14:46.825Z,95769.97
2022-12-26T20:17:14.504Z,95765.19
2022-12-26T20:19:43.807Z,95752.09
2022-12-26T20:22:11.662Z,95749.72
2022-12-26T20:24:39.304Z,95761.94
2022-12-26T20:27:06.917Z,95753.25
2022-12-26T20:29:34.645Z,95748.59
2022-12-26T20:32:03.615Z,95739.78
2022-12-26T20:34:31.190Z,95740.50
2022-12-26T20:36:58.807Z,95736.66
2022-12-26T20:39:27.185Z,95744.44
2022-12-26T20:41:54.815Z,95746.00
2022-12-26T20:44:22.544Z,95746.59
2022-12-26T20:46:50.508Z,95744.94
2022-12-26T20:49:19.510Z,95743.78
2022-12-26T20:51:47.151Z,95737.56
2022-12-26T20:54:16.490Z,95745.63
2022-12-26T20:56:45.785Z,95754.56
2022-12-26T20:59:13.691Z,95766.91
2022-12-26T21:01:41.578Z,95785.88
2022-12-26T21:04:09.807Z,95796.38
2022-12-26T21:06:39.736Z,95799.88
2022-12-26T21:09:07.560Z,95816.28
2022-12-26T21:11:37.947Z,95838.06
2022-12-26T21:14:07.866Z,95891.59
2022-12-26T21:16:37.784Z,95896.03
2022-12-26T21:19:12.516Z,95911.78
2022-12-26T21:21:46.897Z,95906.25
2022-12-26T21:24:18.908Z,95915.66
2022-12-26T21:26:47.646Z,95914.66
2022-12-26T21:29:17.725Z,95922.09
2022-12-26T21:31:46.111Z,95937.47
2022-12-26T21:34:15.491Z,95933.59
2022-12-26T21:37:06.150Z,95932.28
2022-12-26T21:39:35.131Z,95937.47
2022-12-26T21:42:03.158Z,95933.13
2022-12-26T21:44:30.840Z,95943.47
2022-12-26T21:46:59.117Z,95937.38
2022-12-26T21:49:26.755Z,95949.47
2022-12-26T21:51:55.678Z,95951.00
2022-12-26T21:54:46.694Z,95937.94
2022-12-26T21:57:16.603Z,95951.38
2022-12-26T21:59:59.630Z,95941.94
2022-12-26T22:02:47.824Z,95954.50
2022-12-26T22:05:15.774Z,95962.94
2022-12-26T22:07:44.932Z,95960.56
2022-12-26T22:10:34.460Z,95949.34
2022-12-26T22:13:01.785Z,95954.94
2022-12-26T22:16:01.329Z,95940.34
2022-12-26T22:18:29.730Z,95932.59
2022-12-26T22:20:57.631Z,95950.97
2022-12-26T22:23:26.675Z,95960.66
2022-12-26T22:25:55.310Z,95960.00
2022-12-26T22:28:23.798Z,95956.59
2022-12-26T22:30:51.907Z,95955.56
2022-12-26T22:33:20.271Z,95954.53
2022-12-26T22:35:48.105Z,95947.34
2022-12-26T22:38:15.978Z,95948.84
2022-12-26T22:40:53.531Z,95959.44
2022-12-26T22:43:21.190Z,95964.50
2022-12-26T22:45:48.815Z,95969.13
2022-12-26T22:48:16.704Z,95983.56
2022-12-26T22:50:45.125Z,95975.06
2022-12-26T22:53:13.520Z,95977.19
2022-12-26T22:55:48.534Z,95982.72
2022-12-26T22:58:17.431Z,95976.63
2022-12-26T23:00:46.229Z,95976.06
2022-12-26T23:03:14.554Z,95983.25
